sensor_id;sensor_type;location;lat;lon;timestamp;temperature;humidity
54540;SHT30;40438;52.992;18.604;2023-11-25T00:02:14;1.92;87.62
54540;SHT30;40438;52.992;18.604;2023-11-25T00:04:40;2.02;87.55
54540;SHT30;40438;52.992;18.604;2023-11-25T00:07:06;2.11;86.91
54540;SHT30;40438;52.992;18.604;2023-11-25T00:09:33;1.92;87.30
54540;SHT30;40438;52.992;18.604;2023-11-25T00:11:59;1.79;88.35
54540;SHT30;40438;52.992;18.604;2023-11-25T00:14:25;1.79;88.63
54540;SHT30;40438;52.992;18.604;2023-11-25T00:16:50;1.72;89.14
54540;SHT30;40438;52.992;18.604;2023-11-25T00:19:16;1.67;89.57
54540;SHT30;40438;52.992;18.604;2023-11-25T00:21:42;1.65;89.78
54540;SHT30;40438;52.992;18.604;2023-11-25T00:24:08;1.58;90.03
54540;SHT30;40438;52.992;18.604;2023-11-25T00:26:35;1.47;90.32
54540;SHT30;40438;52.992;18.604;2023-11-25T00:29:01;1.46;90.76
54540;SHT30;40438;52.992;18.604;2023-11-25T00:31:26;1.46;90.72
54540;SHT30;40438;52.992;18.604;2023-11-25T00:33:52;1.44;90.68
54540;SHT30;40438;52.992;18.604;2023-11-25T00:36:18;1.38;91.00
54540;SHT30;40438;52.992;18.604;2023-11-25T00:38:44;1.40;91.04
54540;SHT30;40438;52.992;18.604;2023-11-25T00:41:09;1.43;90.91
54540;SHT30;40438;52.992;18.604;2023-11-25T00:43:37;1.36;91.31
54540;SHT30;40438;52.992;18.604;2023-11-25T00:46:02;1.28;91.62
54540;SHT30;40438;52.992;18.604;2023-11-25T00:48:28;1.28;91.87
54540;SHT30;40438;52.992;18.604;2023-11-25T00:50:54;1.41;91.48
54540;SHT30;40438;52.992;18.604;2023-11-25T00:53:20;1.33;91.66
54540;SHT30;40438;52.992;18.604;2023-11-25T00:55:46;1.33;91.65
54540;SHT30;40438;52.992;18.604;2023-11-25T00:58:11;1.36;91.46
54540;SHT30;40438;52.992;18.604;2023-11-25T01:00:39;1.33;91.87
54540;SHT30;40438;52.992;18.604;2023-11-25T01:03:04;1.40;91.34
54540;SHT30;40438;52.992;18.604;2023-11-25T01:05:30;1.36;91.56
54540;SHT30;40438;52.992;18.604;2023-11-25T01:07:56;1.36;91.56
54540;SHT30;40438;52.992;18.604;2023-11-25T01:10:22;1.36;91.28
54540;SHT30;40438;52.992;18.604;2023-11-25T01:12:47;1.44;90.99
54540;SHT30;40438;52.992;18.604;2023-11-25T01:15:13;1.43;91.08
54540;SHT30;40438;52.992;18.604;2023-11-25T01:17:40;1.47;90.70
54540;SHT30;40438;52.992;18.604;2023-11-25T01:20:07;1.51;90.57
54540;SHT30;40438;52.992;18.604;2023-11-25T01:22:33;1.43;91.09
54540;SHT30;40438;52.992;18.604;2023-11-25T01:24:59;1.48;90.83
54540;SHT30;40438;52.992;18.604;2023-11-25T01:27:24;1.54;90.54
54540;SHT30;40438;52.992;18.604;2023-11-25T01:29:50;1.50;90.44
54540;SHT30;40438;52.992;18.604;2023-11-25T01:32:16;1.40;90.69
54540;SHT30;40438;52.992;18.604;2023-11-25T01:34:43;1.43;90.97
54540;SHT30;40438;52.992;18.604;2023-11-25T01:37:09;1.46;90.98
54540;SHT30;40438;52.992;18.604;2023-11-25T01:39:35;1.40;91.02
54540;SHT30;40438;52.992;18.604;2023-11-25T01:42:01;1.40;91.32
54540;SHT30;40438;52.992;18.604;2023-11-25T01:44:27;1.34;91.41
54540;SHT30;40438;52.992;18.604;2023-11-25T01:46:53;1.36;91.41
54540;SHT30;40438;52.992;18.604;2023-11-25T01:49:19;1.37;91.49
54540;SHT30;40438;52.992;18.604;2023-11-25T01:51:47;1.36;91.57
54540;SHT30;40438;52.992;18.604;2023-11-25T01:54:15;1.41;91.29
54540;SHT30;40438;52.992;18.604;2023-11-25T01:56:41;1.38;91.36
54540;SHT30;40438;52.992;18.604;2023-11-25T01:59:09;1.40;91.15
54540;SHT30;40438;52.992;18.604;2023-11-25T02:01:35;1.48;90.82
54540;SHT30;40438;52.992;18.604;2023-11-25T02:04:01;1.55;90.51
54540;SHT30;40438;52.992;18.604;2023-11-25T02:06:27;1.54;90.13
54540;SHT30;40438;52.992;18.604;2023-11-25T02:08:54;1.44;90.20
54540;SHT30;40438;52.992;18.604;2023-11-25T02:11:20;1.41;90.43
54540;SHT30;40438;52.992;18.604;2023-11-25T02:13:45;1.40;90.36
54540;SHT30;40438;52.992;18.604;2023-11-25T02:16:12;1.48;90.13
54540;SHT30;40438;52.992;18.604;2023-11-25T02:18:38;1.34;90.37
54540;SHT30;40438;52.992;18.604;2023-11-25T02:21:05;1.37;90.42
54540;SHT30;40438;52.992;18.604;2023-11-25T02:23:32;1.43;90.25
54540;SHT30;40438;52.992;18.604;2023-11-25T02:25:58;1.44;89.93
54540;SHT30;40438;52.992;18.604;2023-11-25T02:28:24;1.47;89.40
54540;SHT30;40438;52.992;18.604;2023-11-25T02:30:50;1.44;89.55
54540;SHT30;40438;52.992;18.604;2023-11-25T02:33:16;1.41;89.62
54540;SHT30;40438;52.992;18.604;2023-11-25T02:35:42;1.41;89.72
54540;SHT30;40438;52.992;18.604;2023-11-25T02:38:08;1.46;89.68
54540;SHT30;40438;52.992;18.604;2023-11-25T02:40:35;1.59;89.05
54540;SHT30;40438;52.992;18.604;2023-11-25T02:43:01;1.44;89.30
54540;SHT30;40438;52.992;18.604;2023-11-25T02:45:27;1.36;89.80
54540;SHT30;40438;52.992;18.604;2023-11-25T02:47:53;1.40;89.20
54540;SHT30;40438;52.992;18.604;2023-11-25T02:50:20;1.44;89.12
54540;SHT30;40438;52.992;18.604;2023-11-25T02:52:46;1.47;88.70
54540;SHT30;40438;52.992;18.604;2023-11-25T02:55:12;1.36;89.03
54540;SHT30;40438;52.992;18.604;2023-11-25T02:57:40;1.47;88.68
54540;SHT30;40438;52.992;18.604;2023-11-25T03:00:08;1.41;88.68
54540;SHT30;40438;52.992;18.604;2023-11-25T03:02:34;1.40;88.48
54540;SHT30;40438;52.992;18.604;2023-11-25T03:05:00;1.37;89.04
54540;SHT30;40438;52.992;18.604;2023-11-25T03:07:25;1.46;88.55
54540;SHT30;40438;52.992;18.604;2023-11-25T03:09:52;1.43;88.26
54540;SHT30;40438;52.992;18.604;2023-11-25T03:12:18;1.40;88.25
54540;SHT30;40438;52.992;18.604;2023-11-25T03:14:45;1.31;88.30
54540;SHT30;40438;52.992;18.604;2023-11-25T03:17:10;1.27;88.61
54540;SHT30;40438;52.992;18.604;2023-11-25T03:19:36;1.26;88.56
54540;SHT30;40438;52.992;18.604;2023-11-25T03:22:02;1.22;88.54
54540;SHT30;40438;52.992;18.604;2023-11-25T03:24:28;1.24;88.46
54540;SHT30;40438;52.992;18.604;2023-11-25T03:26:54;1.27;87.89
54540;SHT30;40438;52.992;18.604;2023-11-25T03:29:20;1.20;88.07
54540;SHT30;40438;52.992;18.604;2023-11-25T03:31:47;1.17;88.27
54540;SHT30;40438;52.992;18.604;2023-11-25T03:34:13;1.13;88.10
54540;SHT30;40438;52.992;18.604;2023-11-25T03:36:38;1.10;88.05
54540;SHT30;40438;52.992;18.604;2023-11-25T03:39:04;1.07;88.25
54540;SHT30;40438;52.992;18.604;2023-11-25T03:41:30;0.92;88.67
54540;SHT30;40438;52.992;18.604;2023-11-25T03:43:56;0.93;88.81
54540;SHT30;40438;52.992;18.604;2023-11-25T03:46:21;0.90;88.93
54540;SHT30;40438;52.992;18.604;2023-11-25T03:48:49;0.92;88.58
54540;SHT30;40438;52.992;18.604;2023-11-25T03:51:14;0.83;88.78
54540;SHT30;40438;52.992;18.604;2023-11-25T03:53:40;0.85;88.69
54540;SHT30;40438;52.992;18.604;2023-11-25T03:56:06;0.83;88.75
54540;SHT30;40438;52.992;18.604;2023-11-25T03:58:32;0.83;88.39
54540;SHT30;40438;52.992;18.604;2023-11-25T04:00:59;0.79;88.45
54540;SHT30;40438;52.992;18.604;2023-11-25T04:03:25;0.79;88.63
54540;SHT30;40438;52.992;18.604;2023-11-25T04:05:52;0.83;88.22
54540;SHT30;40438;52.992;18.604;2023-11-25T04:08:18;0.78;88.14
54540;SHT30;40438;52.992;18.604;2023-11-25T04:10:44;0.75;88.36
54540;SHT30;40438;52.992;18.604;2023-11-25T04:13:10;0.79;88.09
54540;SHT30;40438;52.992;18.604;2023-11-25T04:15:35;0.69;88.30
54540;SHT30;40438;52.992;18.604;2023-11-25T04:18:01;0.68;88.12
54540;SHT30;40438;52.992;18.604;2023-11-25T04:20:27;0.73;87.90
54540;SHT30;40438;52.992;18.604;2023-11-25T04:22:54;0.72;88.00
54540;SHT30;40438;52.992;18.604;2023-11-25T04:25:20;0.70;87.88
54540;SHT30;40438;52.992;18.604;2023-11-25T04:27:48;0.75;87.68
54540;SHT30;40438;52.992;18.604;2023-11-25T04:30:14;0.70;87.92
54540;SHT30;40438;52.992;18.604;2023-11-25T04:32:42;0.68;88.04
54540;SHT30;40438;52.992;18.604;2023-11-25T04:35:08;0.69;88.04
54540;SHT30;40438;52.992;18.604;2023-11-25T04:37:34;0.65;87.95
54540;SHT30;40438;52.992;18.604;2023-11-25T04:40:02;0.57;87.53
54540;SHT30;40438;52.992;18.604;2023-11-25T04:42:28;0.49;87.75
54540;SHT30;40438;52.992;18.604;2023-11-25T04:44:54;0.55;87.44
54540;SHT30;40438;52.992;18.604;2023-11-25T04:47:20;0.54;87.64
54540;SHT30;40438;52.992;18.604;2023-11-25T04:49:45;0.52;87.66
54540;SHT30;40438;52.992;18.604;2023-11-25T04:52:11;0.54;87.50
54540;SHT30;40438;52.992;18.604;2023-11-25T04:54:37;0.52;87.48
54540;SHT30;40438;52.992;18.604;2023-11-25T04:57:04;0.48;87.59
54540;SHT30;40438;52.992;18.604;2023-11-25T04:59:30;0.41;87.69
54540;SHT30;40438;52.992;18.604;2023-11-25T05:01:56;0.44;87.57
54540;SHT30;40438;52.992;18.604;2023-11-25T05:04:22;0.36;87.49
54540;SHT30;40438;52.992;18.604;2023-11-25T05:06:47;0.38;87.47
54540;SHT30;40438;52.992;18.604;2023-11-25T05:09:13;0.30;87.61
54540;SHT30;40438;52.992;18.604;2023-11-25T05:11:39;0.31;87.68
54540;SHT30;40438;52.992;18.604;2023-11-25T05:14:06;0.27;87.79
54540;SHT30;40438;52.992;18.604;2023-11-25T05:16:32;0.27;87.61
54540;SHT30;40438;52.992;18.604;2023-11-25T05:18:58;0.21;87.81
54540;SHT30;40438;52.992;18.604;2023-11-25T05:21:24;0.17;87.81
54540;SHT30;40438;52.992;18.604;2023-11-25T05:23:49;0.11;88.18
54540;SHT30;40438;52.992;18.604;2023-11-25T05:26:15;0.28;87.93
54540;SHT30;40438;52.992;18.604;2023-11-25T05:28:41;0.21;87.82
54540;SHT30;40438;52.992;18.604;2023-11-25T05:31:08;0.13;87.90
54540;SHT30;40438;52.992;18.604;2023-11-25T05:33:34;0.11;88.22
54540;SHT30;40438;52.992;18.604;2023-11-25T05:36:00;0.13;87.98
54540;SHT30;40438;52.992;18.604;2023-11-25T05:38:27;0.09;88.10
54540;SHT30;40438;52.992;18.604;2023-11-25T05:40:52;0.01;88.14
54540;SHT30;40438;52.992;18.604;2023-11-25T05:43:18;-0.01;88.33
54540;SHT30;40438;52.992;18.604;2023-11-25T05:45:44;0.04;87.96
54540;SHT30;40438;52.992;18.604;2023-11-25T05:48:11;0.06;87.96
54540;SHT30;40438;52.992;18.604;2023-11-25T05:50:37;0.04;87.77
54540;SHT30;40438;52.992;18.604;2023-11-25T05:53:03;0.03;88.02
54540;SHT30;40438;52.992;18.604;2023-11-25T05:55:29;-0.03;87.97
54540;SHT30;40438;52.992;18.604;2023-11-25T05:57:54;0.03;88.16
54540;SHT30;40438;52.992;18.604;2023-11-25T06:00:20;-0.10;88.34
54540;SHT30;40438;52.992;18.604;2023-11-25T06:02:46;-0.18;88.60
54540;SHT30;40438;52.992;18.604;2023-11-25T06:05:13;-0.18;88.63
54540;SHT30;40438;52.992;18.604;2023-11-25T06:07:39;-0.06;88.31
54540;SHT30;40438;52.992;18.604;2023-11-25T06:10:06;-0.17;88.69
54540;SHT30;40438;52.992;18.604;2023-11-25T06:12:32;-0.15;88.65
54540;SHT30;40438;52.992;18.604;2023-11-25T06:14:58;-0.17;89.17
54540;SHT30;40438;52.992;18.604;2023-11-25T06:17:23;-0.18;89.08
54540;SHT30;40438;52.992;18.604;2023-11-25T06:19:50;-0.17;89.17
54540;SHT30;40438;52.992;18.604;2023-11-25T06:22:18;-0.13;89.17
54540;SHT30;40438;52.992;18.604;2023-11-25T06:24:43;-0.07;88.89
54540;SHT30;40438;52.992;18.604;2023-11-25T06:27:09;-0.09;88.92
54540;SHT30;40438;52.992;18.604;2023-11-25T06:29:35;-0.10;89.01
54540;SHT30;40438;52.992;18.604;2023-11-25T06:32:01;0.03;88.98
54540;SHT30;40438;52.992;18.604;2023-11-25T06:34:26;-0.01;89.01
54540;SHT30;40438;52.992;18.604;2023-11-25T06:36:52;0.04;89.05
54540;SHT30;40438;52.992;18.604;2023-11-25T06:39:19;0.01;88.88
54540;SHT30;40438;52.992;18.604;2023-11-25T06:41:45;0.07;88.57
54540;SHT30;40438;52.992;18.604;2023-11-25T06:44:11;0.17;88.48
54540;SHT30;40438;52.992;18.604;2023-11-25T06:46:37;0.24;88.33
54540;SHT30;40438;52.992;18.604;2023-11-25T06:49:03;0.11;88.40
54540;SHT30;40438;52.992;18.604;2023-11-25T06:51:29;0.17;88.25
54540;SHT30;40438;52.992;18.604;2023-11-25T06:53:54;0.19;88.32
54540;SHT30;40438;52.992;18.604;2023-11-25T06:56:22;0.21;88.30
54540;SHT30;40438;52.992;18.604;2023-11-25T06:58:47;0.30;88.03
54540;SHT30;40438;52.992;18.604;2023-11-25T07:01:16;0.19;88.53
54540;SHT30;40438;52.992;18.604;2023-11-25T07:03:42;0.23;88.38
54540;SHT30;40438;52.992;18.604;2023-11-25T07:06:07;0.23;88.40
54540;SHT30;40438;52.992;18.604;2023-11-25T07:08:33;0.26;88.52
54540;SHT30;40438;52.992;18.604;2023-11-25T07:10:59;0.24;88.60
54540;SHT30;40438;52.992;18.604;2023-11-25T07:13:27;0.27;88.75
54540;SHT30;40438;52.992;18.604;2023-11-25T07:15:53;0.28;88.86
54540;SHT30;40438;52.992;18.604;2023-11-25T07:18:18;0.38;88.58
54540;SHT30;40438;52.992;18.604;2023-11-25T07:20:45;0.47;88.60
54540;SHT30;40438;52.992;18.604;2023-11-25T07:23:11;0.49;88.55
54540;SHT30;40438;52.992;18.604;2023-11-25T07:25:37;0.54;88.58
54540;SHT30;40438;52.992;18.604;2023-11-25T07:28:03;0.59;88.70
54540;SHT30;40438;52.992;18.604;2023-11-25T07:30:30;0.73;88.58
54540;SHT30;40438;52.992;18.604;2023-11-25T07:32:56;0.82;88.28
54540;SHT30;40438;52.992;18.604;2023-11-25T07:35:22;0.78;88.37
54540;SHT30;40438;52.992;18.604;2023-11-25T07:37:47;0.97;87.83
54540;SHT30;40438;52.992;18.604;2023-11-25T07:40:13;0.90;88.29
54540;SHT30;40438;52.992;18.604;2023-11-25T07:42:39;0.90;88.39
54540;SHT30;40438;52.992;18.604;2023-11-25T07:45:06;0.92;88.42
54540;SHT30;40438;52.992;18.604;2023-11-25T07:47:34;1.03;87.75
54540;SHT30;40438;52.992;18.604;2023-11-25T07:49:59;1.00;87.69
54540;SHT30;40438;52.992;18.604;2023-11-25T07:52:25;1.09;87.66
54540;SHT30;40438;52.992;18.604;2023-11-25T07:54:51;1.20;87.56
54540;SHT30;40438;52.992;18.604;2023-11-25T07:57:17;1.22;87.43
54540;SHT30;40438;52.992;18.604;2023-11-25T07:59:42;1.19;87.62
54540;SHT30;40438;52.992;18.604;2023-11-25T08:02:08;1.24;87.72
54540;SHT30;40438;52.992;18.604;2023-11-25T08:04:35;1.30;87.50
54540;SHT30;40438;52.992;18.604;2023-11-25T08:07:01;1.34;87.53
54540;SHT30;40438;52.992;18.604;2023-11-25T08:09:27;1.34;87.09
54540;SHT30;40438;52.992;18.604;2023-11-25T08:11:52;1.33;87.36
54540;SHT30;40438;52.992;18.604;2023-11-25T08:14:18;1.46;87.13
54540;SHT30;40438;52.992;18.604;2023-11-25T08:16:44;1.57;86.70
54540;SHT30;40438;52.992;18.604;2023-11-25T08:19:10;1.61;86.89
54540;SHT30;40438;52.992;18.604;2023-11-25T08:21:37;1.86;85.94
54540;SHT30;40438;52.992;18.604;2023-11-25T08:24:03;2.03;85.36
54540;SHT30;40438;52.992;18.604;2023-11-25T08:26:29;2.16;85.13
54540;SHT30;40438;52.992;18.604;2023-11-25T08:28:55;2.19;85.26
54540;SHT30;40438;52.992;18.604;2023-11-25T08:31:21;2.32;84.49
54540;SHT30;40438;52.992;18.604;2023-11-25T08:33:47;2.24;84.31
54540;SHT30;40438;52.992;18.604;2023-11-25T08:36:14;2.36;83.96
54540;SHT30;40438;52.992;18.604;2023-11-25T08:38:41;2.47;83.14
54540;SHT30;40438;52.992;18.604;2023-11-25T08:41:07;2.40;83.18
54540;SHT30;40438;52.992;18.604;2023-11-25T08:43:33;2.43;83.48
54540;SHT30;40438;52.992;18.604;2023-11-25T08:45:59;2.40;83.46
54540;SHT30;40438;52.992;18.604;2023-11-25T08:48:25;2.37;83.59
54540;SHT30;40438;52.992;18.604;2023-11-25T08:50:51;2.36;83.51
54540;SHT30;40438;52.992;18.604;2023-11-25T08:53:17;2.40;83.16
54540;SHT30;40438;52.992;18.604;2023-11-25T08:55:45;2.32;83.83
54540;SHT30;40438;52.992;18.604;2023-11-25T08:58:11;2.20;84.01
54540;SHT30;40438;52.992;18.604;2023-11-25T09:00:36;2.07;84.57
54540;SHT30;40438;52.992;18.604;2023-11-25T09:03:02;2.09;84.42
54540;SHT30;40438;52.992;18.604;2023-11-25T09:05:28;2.17;83.77
54540;SHT30;40438;52.992;18.604;2023-11-25T09:07:54;2.34;83.70
54540;SHT30;40438;52.992;18.604;2023-11-25T09:10:20;2.50;83.43
54540;SHT30;40438;52.992;18.604;2023-11-25T09:12:48;2.61;82.48
54540;SHT30;40438;52.992;18.604;2023-11-25T09:15:13;2.64;82.19
54540;SHT30;40438;52.992;18.604;2023-11-25T09:17:39;2.57;82.26
54540;SHT30;40438;52.992;18.604;2023-11-25T09:20:06;2.58;82.82
54540;SHT30;40438;52.992;18.604;2023-11-25T09:22:34;2.81;81.94
54540;SHT30;40438;52.992;18.604;2023-11-25T09:24:59;3.08;81.23
54540;SHT30;40438;52.992;18.604;2023-11-25T09:27:25;3.24;80.43
54540;SHT30;40438;52.992;18.604;2023-11-25T09:29:52;3.36;79.42
54540;SHT30;40438;52.992;18.604;2023-11-25T09:32:18;3.42;79.37
54540;SHT30;40438;52.992;18.604;2023-11-25T09:34:44;3.56;78.93
54540;SHT30;40438;52.992;18.604;2023-11-25T09:37:10;3.58;78.81
54540;SHT30;40438;52.992;18.604;2023-11-25T09:39:35;3.68;78.40
54540;SHT30;40438;52.992;18.604;2023-11-25T09:42:01;3.70;78.00
54540;SHT30;40438;52.992;18.604;2023-11-25T09:44:28;3.60;78.36
54540;SHT30;40438;52.992;18.604;2023-11-25T09:46:56;3.40;78.56
54540;SHT30;40438;52.992;18.604;2023-11-25T09:49:22;3.61;78.72
54540;SHT30;40438;52.992;18.604;2023-11-25T09:51:48;3.60;78.82
54540;SHT30;40438;52.992;18.604;2023-11-25T09:54:18;3.75;78.17
54540;SHT30;40438;52.992;18.604;2023-11-25T09:56:47;3.75;78.30
54540;SHT30;40438;52.992;18.604;2023-11-25T09:59:13;3.85;77.96
54540;SHT30;40438;52.992;18.604;2023-11-25T10:01:41;3.98;77.63
54540;SHT30;40438;52.992;18.604;2023-11-25T10:04:11;4.09;77.76
54540;SHT30;40438;52.992;18.604;2023-11-25T10:06:37;4.43;76.93
54540;SHT30;40438;52.992;18.604;2023-11-25T10:09:03;4.50;76.13
54540;SHT30;40438;52.992;18.604;2023-11-25T10:11:29;4.40;76.37
54540;SHT30;40438;52.992;18.604;2023-11-25T10:13:56;4.60;76.27
54540;SHT30;40438;52.992;18.604;2023-11-25T10:16:26;4.64;75.49
54540;SHT30;40438;52.992;18.604;2023-11-25T10:18:52;4.46;75.65
54540;SHT30;40438;52.992;18.604;2023-11-25T10:21:19;4.40;76.01
54540;SHT30;40438;52.992;18.604;2023-11-25T10:23:45;4.43;76.66
54540;SHT30;40438;52.992;18.604;2023-11-25T10:26:11;4.40;76.86
54540;SHT30;40438;52.992;18.604;2023-11-25T10:28:37;4.39;76.25
54540;SHT30;40438;52.992;18.604;2023-11-25T10:31:04;4.25;77.08
54540;SHT30;40438;52.992;18.604;2023-11-25T10:33:30;4.36;77.45
54540;SHT30;40438;52.992;18.604;2023-11-25T10:35:57;4.40;76.76
54540;SHT30;40438;52.992;18.604;2023-11-25T10:38:26;4.39;76.48
54540;SHT30;40438;52.992;18.604;2023-11-25T10:40:56;4.25;77.03
54540;SHT30;40438;52.992;18.604;2023-11-25T10:43:22;3.95;77.82
54540;SHT30;40438;52.992;18.604;2023-11-25T10:45:48;3.57;79.24
54540;SHT30;40438;52.992;18.604;2023-11-25T10:48:14;3.37;79.94
54540;SHT30;40438;52.992;18.604;2023-11-25T10:50:41;3.31;80.59
54540;SHT30;40438;52.992;18.604;2023-11-25T10:53:10;3.15;81.37
54540;SHT30;40438;52.992;18.604;2023-11-25T10:55:39;3.05;81.99
54540;SHT30;40438;52.992;18.604;2023-11-25T10:58:05;2.98;82.42
54540;SHT30;40438;52.992;18.604;2023-11-25T11:00:32;2.89;83.34
54540;SHT30;40438;52.992;18.604;2023-11-25T11:03:01;2.77;83.66
54540;SHT30;40438;52.992;18.604;2023-11-25T11:05:31;2.67;84.26
54540;SHT30;40438;52.992;18.604;2023-11-25T11:08:00;2.61;85.08
54540;SHT30;40438;52.992;18.604;2023-11-25T11:10:30;2.48;85.63
54540;SHT30;40438;52.992;18.604;2023-11-25T11:13:02;2.46;86.08
54540;SHT30;40438;52.992;18.604;2023-11-25T11:15:30;2.41;85.98
54540;SHT30;40438;52.992;18.604;2023-11-25T11:18:00;2.40;86.35
54540;SHT30;40438;52.992;18.604;2023-11-25T11:20:28;2.36;87.08
54540;SHT30;40438;52.992;18.604;2023-11-25T11:22:56;2.32;87.08
54540;SHT30;40438;52.992;18.604;2023-11-25T11:25:26;2.26;87.32
54540;SHT30;40438;52.992;18.604;2023-11-25T11:28:05;2.20;87.56
54540;SHT30;40438;52.992;18.604;2023-11-25T11:30:38;2.27;87.68
54540;SHT30;40438;52.992;18.604;2023-11-25T11:33:08;2.21;87.87
54540;SHT30;40438;52.992;18.604;2023-11-25T11:35:35;2.33;87.93
54540;SHT30;40438;52.992;18.604;2023-11-25T11:38:01;2.32;87.77
54540;SHT30;40438;52.992;18.604;2023-11-25T11:40:27;2.37;87.60
54540;SHT30;40438;52.992;18.604;2023-11-25T11:42:54;2.26;87.94
54540;SHT30;40438;52.992;18.604;2023-11-25T11:45:22;2.10;88.53
54540;SHT30;40438;52.992;18.604;2023-11-25T11:47:51;2.10;89.05
54540;SHT30;40438;52.992;18.604;2023-11-25T11:50:18;2.06;88.94
54540;SHT30;40438;52.992;18.604;2023-11-25T11:52:45;2.19;88.70
54540;SHT30;40438;52.992;18.604;2023-11-25T11:55:33;2.19;88.36
54540;SHT30;40438;52.992;18.604;2023-11-25T11:58:02;2.10;88.64
54540;SHT30;40438;52.992;18.604;2023-11-25T12:00:30;2.17;88.55
54540;SHT30;40438;52.992;18.604;2023-11-25T12:02:56;2.05;88.61
54540;SHT30;40438;52.992;18.604;2023-11-25T12:05:24;2.03;88.98
54540;SHT30;40438;52.992;18.604;2023-11-25T12:07:50;2.11;88.66
54540;SHT30;40438;52.992;18.604;2023-11-25T12:10:17;1.98;89.24
54540;SHT30;40438;52.992;18.604;2023-11-25T12:12:44;2.19;88.47
54540;SHT30;40438;52.992;18.604;2023-11-25T12:15:10;2.05;88.87
54540;SHT30;40438;52.992;18.604;2023-11-25T12:17:37;2.13;88.38
54540;SHT30;40438;52.992;18.604;2023-11-25T12:20:05;2.19;88.13
54540;SHT30;40438;52.992;18.604;2023-11-25T12:22:31;2.21;88.28
54540;SHT30;40438;52.992;18.604;2023-11-25T12:24:57;2.32;88.09
54540;SHT30;40438;52.992;18.604;2023-11-25T12:27:24;2.32;87.32
54540;SHT30;40438;52.992;18.604;2023-11-25T12:29:51;2.37;87.64
54540;SHT30;40438;52.992;18.604;2023-11-25T12:32:17;2.36;87.36
54540;SHT30;40438;52.992;18.604;2023-11-25T12:34:44;2.46;86.48
54540;SHT30;40438;52.992;18.604;2023-11-25T12:37:10;2.48;86.44
54540;SHT30;40438;52.992;18.604;2023-11-25T12:39:38;2.38;86.77
54540;SHT30;40438;52.992;18.604;2023-11-25T12:42:04;2.37;86.89
54540;SHT30;40438;52.992;18.604;2023-11-25T12:44:47;2.53;86.56
54540;SHT30;40438;52.992;18.604;2023-11-25T12:47:13;2.61;86.36
54540;SHT30;40438;52.992;18.604;2023-11-25T12:49:39;2.58;86.42
54540;SHT30;40438;52.992;18.604;2023-11-25T12:52:06;2.51;86.47
54540;SHT30;40438;52.992;18.604;2023-11-25T12:54:44;2.48;86.25
54540;SHT30;40438;52.992;18.604;2023-11-25T12:57:10;2.41;86.33
54540;SHT30;40438;52.992;18.604;2023-11-25T12:59:36;2.43;86.40
54540;SHT30;40438;52.992;18.604;2023-11-25T13:02:03;2.43;86.24
54540;SHT30;40438;52.992;18.604;2023-11-25T13:04:29;2.37;86.49
54540;SHT30;40438;52.992;18.604;2023-11-25T13:06:55;2.40;86.58
54540;SHT30;40438;52.992;18.604;2023-11-25T13:09:24;2.29;87.09
54540;SHT30;40438;52.992;18.604;2023-11-25T13:11:50;2.33;86.59
54540;SHT30;40438;52.992;18.604;2023-11-25T13:14:16;2.32;86.49
54540;SHT30;40438;52.992;18.604;2023-11-25T13:16:42;2.29;86.34
54540;SHT30;40438;52.992;18.604;2023-11-25T13:19:08;2.30;86.79
54540;SHT30;40438;52.992;18.604;2023-11-25T13:21:34;2.32;86.20
54540;SHT30;40438;52.992;18.604;2023-11-25T13:23:59;2.32;86.38
54540;SHT30;40438;52.992;18.604;2023-11-25T13:26:27;2.30;86.42
54540;SHT30;40438;52.992;18.604;2023-11-25T13:28:52;2.16;86.83
54540;SHT30;40438;52.992;18.604;2023-11-25T13:31:18;2.10;87.06
54540;SHT30;40438;52.992;18.604;2023-11-25T13:33:44;2.27;86.36
54540;SHT30;40438;52.992;18.604;2023-11-25T13:36:10;2.27;86.30
54540;SHT30;40438;52.992;18.604;2023-11-25T13:38:35;2.34;86.19
54540;SHT30;40438;52.992;18.604;2023-11-25T13:41:01;2.21;86.63
54540;SHT30;40438;52.992;18.604;2023-11-25T13:43:28;2.23;86.59
54540;SHT30;40438;52.992;18.604;2023-11-25T13:45:54;2.20;86.71
54540;SHT30;40438;52.992;18.604;2023-11-25T13:48:20;2.14;86.94
54540;SHT30;40438;52.992;18.604;2023-11-25T13:50:46;2.14;87.06
54540;SHT30;40438;52.992;18.604;2023-11-25T13:53:11;2.07;87.31
54540;SHT30;40438;52.992;18.604;2023-11-25T13:55:37;2.13;87.32
54540;SHT30;40438;52.992;18.604;2023-11-25T13:58:03;2.05;87.77
54540;SHT30;40438;52.992;18.604;2023-11-25T14:00:30;2.05;87.77
54540;SHT30;40438;52.992;18.604;2023-11-25T14:02:56;2.05;87.77
54540;SHT30;40438;52.992;18.604;2023-11-25T14:05:22;2.11;87.08
54540;SHT30;40438;52.992;18.604;2023-11-25T14:07:48;2.06;86.84
54540;SHT30;40438;52.992;18.604;2023-11-25T14:10:14;2.10;87.01
54540;SHT30;40438;52.992;18.604;2023-11-25T14:12:40;1.96;86.95
54540;SHT30;40438;52.992;18.604;2023-11-25T14:15:07;1.95;86.18
54540;SHT30;40438;52.992;18.604;2023-11-25T14:17:37;1.90;86.07
54540;SHT30;40438;52.992;18.604;2023-11-25T14:20:04;1.93;85.68
54540;SHT30;40438;52.992;18.604;2023-11-25T14:22:30;1.88;85.46
54540;SHT30;40438;52.992;18.604;2023-11-25T14:24:55;1.90;85.43
54540;SHT30;40438;52.992;18.604;2023-11-25T14:27:21;1.89;85.47
54540;SHT30;40438;52.992;18.604;2023-11-25T14:29:47;1.88;85.54
54540;SHT30;40438;52.992;18.604;2023-11-25T14:32:13;1.88;85.75
54540;SHT30;40438;52.992;18.604;2023-11-25T14:34:40;1.85;85.47
54540;SHT30;40438;52.992;18.604;2023-11-25T14:37:06;1.86;85.68
54540;SHT30;40438;52.992;18.604;2023-11-25T14:39:32;1.88;85.70
54540;SHT30;40438;52.992;18.604;2023-11-25T14:41:57;1.88;85.81
54540;SHT30;40438;52.992;18.604;2023-11-25T14:44:23;1.88;85.58
54540;SHT30;40438;52.992;18.604;2023-11-25T14:46:49;1.88;85.75
54540;SHT30;40438;52.992;18.604;2023-11-25T14:49:15;1.92;85.23
54540;SHT30;40438;52.992;18.604;2023-11-25T14:51:42;1.95;84.73
54540;SHT30;40438;52.992;18.604;2023-11-25T14:54:08;1.89;85.13
54540;SHT30;40438;52.992;18.604;2023-11-25T14:56:33;2.02;84.94
54540;SHT30;40438;52.992;18.604;2023-11-25T14:58:59;1.98;85.45
54540;SHT30;40438;52.992;18.604;2023-11-25T15:01:25;1.95;85.69
54540;SHT30;40438;52.992;18.604;2023-11-25T15:03:51;1.93;86.19
54540;SHT30;40438;52.992;18.604;2023-11-25T15:06:17;1.93;86.19
54540;SHT30;40438;52.992;18.604;2023-11-25T15:08:44;1.86;85.48
54540;SHT30;40438;52.992;18.604;2023-11-25T15:11:10;1.88;85.45
54540;SHT30;40438;52.992;18.604;2023-11-25T15:13:35;1.78;84.88
54540;SHT30;40438;52.992;18.604;2023-11-25T15:16:01;1.79;85.01
54540;SHT30;40438;52.992;18.604;2023-11-25T15:18:27;1.74;84.97
54540;SHT30;40438;52.992;18.604;2023-11-25T15:20:53;1.86;84.64
54540;SHT30;40438;52.992;18.604;2023-11-25T15:23:18;1.92;84.31
54540;SHT30;40438;52.992;18.604;2023-11-25T15:25:46;1.89;84.22